Bear Mine, Colorado
Current Conditions -  °F | °C
As of 6:53 AM on Saturday 25 Oct 2014 (Local Time) from KASE Reporting Station
Clear Clear  
Wind Chill: 31°   Ceiling: Unl
Heat Index: 31°   Visibility: 10mi
Dew Point: 18°   Wind: 3mph
Humidity: 59%   Direction: 200°SSW
Pressure: 30.41"   Gusts: NA
Location:  38.939°N, 107.343°W
Report Text: KASE 251253Z 20003KT 10SM CLR M01/M08 A3041 RMK AO2 SLP248 T10061078
Loading
Personal Weather Stations






























Interactive Weather Map
Tropical Storm Tracking
New forecast layout! Learn more

10-Day Weather Forecast

Advertisements
Track Severe Weather on mobile